Time;durP1;ratioP1;P1;durP2;ratioP2;P2;SDS_P1;SDS_P2;PMS_P1;PMS_P2;Temp;Humidity;BMP_temperature;BMP_pressure;BME280_temperature;BME280_humidity;BME280_pressure;Samples;Min_cycle;Max_cycle;Signal;HPM_P1;HPM_P2
2024/01/24 00:02:01;;;;;;;2.20;1.93;;;11.90;99.90;;;;;;4973103;28;20862;-68
2024/01/24 00:04:28;;;;;;;1.90;1.57;;;12.00;99.90;;;;;;4982761;28;20456;-68
2024/01/24 00:06:55;;;;;;;2.03;1.80;;;12.00;99.90;;;;;;4969866;28;21875;-68
2024/01/24 00:09:22;;;;;;;5.13;1.87;;;12.10;99.90;;;;;;4961093;28;21021;-67
2024/01/24 00:11:49;;;;;;;1.33;1.20;;;12.10;99.90;;;;;;4972299;28;20496;-68
2024/01/24 00:14:16;;;;;;;1.93;1.73;;;12.10;99.90;;;;;;4980883;28;20470;-68
2024/01/24 00:16:42;;;;;;;1.73;1.63;;;12.20;99.90;;;;;;4972319;28;20458;-68
2024/01/24 00:19:10;;;;;;;2.47;1.93;;;12.20;99.90;;;;;;4974311;28;20473;-68
2024/01/24 00:21:37;;;;;;;2.03;1.83;;;12.20;99.90;;;;;;4978445;28;20467;-68
2024/01/24 00:24:04;;;;;;;3.20;1.80;;;12.20;99.90;;;;;;4969816;28;20544;-67
2024/01/24 00:26:31;;;;;;;2.10;1.90;;;12.20;99.90;;;;;;4981994;28;20482;-68
2024/01/24 00:28:57;;;;;;;1.50;1.40;;;12.20;99.90;;;;;;4980867;28;20482;-68
2024/01/24 00:31:24;;;;;;;5.17;2.50;;;12.20;99.90;;;;;;4974889;28;20489;-67
2024/01/24 00:33:52;;;;;;;4.83;1.77;;;12.20;99.90;;;;;;4975441;28;20462;-68
2024/01/24 00:36:20;;;;;;;1.77;1.47;;;12.20;99.90;;;;;;4974293;28;20501;-68
2024/01/24 00:38:46;;;;;;;8.00;2.57;;;12.20;99.90;;;;;;4979600;28;20848;-67
2024/01/24 00:41:13;;;;;;;3.90;2.00;;;12.30;99.90;;;;;;4980224;28;20461;-67
2024/01/24 00:43:40;;;;;;;1.50;1.40;;;12.30;99.90;;;;;;4982788;28;20443;-68
2024/01/24 00:46:07;;;;;;;4.57;1.90;;;12.30;99.90;;;;;;4975371;28;20833;-68
2024/01/24 00:48:33;;;;;;;2.17;1.80;;;12.30;99.90;;;;;;4978599;28;20482;-68
2024/01/24 00:51:00;;;;;;;2.20;1.27;;;12.30;99.90;;;;;;4978450;28;20457;-68
2024/01/24 00:53:30;;;;;;;1.53;1.43;;;12.40;99.90;;;;;;4974160;28;20489;-68
2024/01/24 00:55:57;;;;;;;3.47;2.30;;;12.40;99.90;;;;;;4972725;28;20490;-68
2024/01/24 00:58:24;;;;;;;4.43;2.20;;;12.50;99.90;;;;;;4978307;28;20454;-68
2024/01/24 01:00:51;;;;;;;1.53;1.43;;;12.50;99.90;;;;;;4979693;28;20470;-68
2024/01/24 01:03:18;;;;;;;4.47;1.30;;;12.60;99.90;;;;;;4981297;28;20475;-68
2024/01/24 01:05:45;;;;;;;3.97;1.40;;;12.60;99.90;;;;;;4978806;28;20482;-68
2024/01/24 01:08:11;;;;;;;2.53;1.90;;;12.70;99.90;;;;;;4977809;28;20463;-68
2024/01/24 01:10:39;;;;;;;1.70;1.30;;;12.60;99.90;;;;;;4973413;28;20470;-69
2024/01/24 01:13:06;;;;;;;2.80;1.40;;;12.70;99.90;;;;;;4977528;28;20476;-68
2024/01/24 01:15:33;;;;;;;4.30;1.73;;;12.70;99.90;;;;;;4982505;28;20474;-66
2024/01/24 01:18:00;;;;;;;1.63;1.30;;;12.70;99.90;;;;;;4980992;28;20473;-67
2024/01/24 01:20:26;;;;;;;1.60;1.50;;;12.80;99.90;;;;;;4970042;28;20458;-67
2024/01/24 01:22:53;;;;;;;1.50;1.40;;;12.80;99.90;;;;;;4977656;28;20847;-67
2024/01/24 01:25:20;;;;;;;3.13;2.07;;;12.80;99.90;;;;;;4968571;28;20490;-67
2024/01/24 01:27:48;;;;;;;1.43;1.33;;;12.80;99.90;;;;;;4976044;28;20984;-67
2024/01/24 01:30:15;;;;;;;1.93;1.40;;;12.90;99.90;;;;;;4976487;28;20489;-67
2024/01/24 01:32:43;;;;;;;2.70;1.43;;;12.90;99.90;;;;;;4980103;28;20544;-67
2024/01/24 01:35:10;;;;;;;3.63;2.20;;;13.00;99.90;;;;;;4978029;28;20497;-67
2024/01/24 01:37:38;;;;;;;5.73;1.97;;;13.00;99.90;;;;;;4977338;28;20942;-67
2024/01/24 01:40:07;;;;;;;1.77;1.43;;;13.00;99.90;;;;;;4972020;28;20498;-67
2024/01/24 01:42:34;;;;;;;2.30;1.50;;;13.00;99.90;;;;;;4978560;28;20960;-67
2024/01/24 01:45:03;;;;;;;2.43;1.57;;;13.10;99.90;;;;;;4971128;28;20478;-67
2024/01/24 01:47:30;;;;;;;6.50;2.27;;;13.10;99.90;;;;;;4981126;28;20896;-67
2024/01/24 01:49:57;;;;;;;1.47;1.33;;;13.10;99.90;;;;;;4972382;28;20521;-67
2024/01/24 01:52:24;;;;;;;3.00;1.80;;;13.10;99.90;;;;;;4976037;28;20928;-67
2024/01/24 01:54:52;;;;;;;1.30;1.20;;;13.20;99.90;;;;;;4965084;28;20565;-67
2024/01/24 01:57:19;;;;;;;2.27;1.60;;;13.20;99.90;;;;;;4973315;28;20490;-67
2024/01/24 01:59:46;;;;;;;1.93;1.33;;;13.20;99.90;;;;;;4974818;28;20497;-67
2024/01/24 02:02:16;;;;;;;1.53;1.43;;;13.30;99.90;;;;;;4972107;28;20477;-67
2024/01/24 02:04:43;;;;;;;2.30;1.80;;;13.30;99.90;;;;;;4973917;28;20478;-67
2024/01/24 02:07:09;;;;;;;3.00;2.73;;;13.30;99.90;;;;;;4966962;28;20459;-67
2024/01/24 02:09:36;;;;;;;1.87;1.77;;;13.20;99.90;;;;;;4968209;28;20470;-68
2024/01/24 02:12:03;;;;;;;2.33;1.20;;;13.00;99.90;;;;;;4971258;28;20470;-67
2024/01/24 02:14:30;;;;;;;1.87;1.40;;;12.90;99.90;;;;;;4974686;28;20466;-68
2024/01/24 02:16:57;;;;;;;1.53;1.40;;;12.90;99.90;;;;;;4967935;28;20629;-68
2024/01/24 02:19:25;;;;;;;2.30;1.33;;;12.90;99.90;;;;;;4970908;28;20470;-68
2024/01/24 02:21:52;;;;;;;1.60;1.50;;;12.90;99.90;;;;;;4970875;28;20469;-68
2024/01/24 02:24:20;;;;;;;1.67;1.57;;;12.90;99.90;;;;;;4975223;28;20848;-68
2024/01/24 02:26:47;;;;;;;1.93;1.70;;;13.00;99.90;;;;;;4977590;28;20470;-68
2024/01/24 02:29:14;;;;;;;1.90;1.43;;;13.00;99.90;;;;;;4971822;28;20486;-68
2024/01/24 02:31:41;;;;;;;2.03;1.80;;;13.10;99.90;;;;;;4981339;28;20459;-68
2024/01/24 02:34:07;;;;;;;1.50;1.40;;;13.10;99.90;;;;;;4970840;28;20469;-67
2024/01/24 02:36:34;;;;;;;1.40;1.30;;;13.20;99.90;;;;;;4974107;28;21104;-68
2024/01/24 02:39:03;;;;;;;2.00;1.30;;;13.30;99.90;;;;;;4967724;28;20450;-68
2024/01/24 02:41:32;;;;;;;1.47;1.37;;;13.20;99.90;;;;;;4974178;28;20560;-68
2024/01/24 02:43:58;;;;;;;3.50;1.80;;;13.20;99.90;;;;;;4963005;28;20984;-68
2024/01/24 02:46:25;;;;;;;1.80;1.33;;;13.20;99.90;;;;;;4956597;28;20486;-68
2024/01/24 02:48:52;;;;;;;1.77;1.20;;;13.30;99.90;;;;;;4961674;28;20478;-68
2024/01/24 02:51:25;;;;;;;1.40;1.30;;;13.30;99.90;;;;;;4971826;28;20485;-68
2024/01/24 02:53:51;;;;;;;1.20;1.00;;;13.40;99.90;;;;;;4969173;28;20458;-68
2024/01/24 02:56:18;;;;;;;2.87;1.20;;;13.40;99.90;;;;;;4973858;28;20516;-68
2024/01/24 02:58:47;;;;;;;1.13;0.90;;;13.50;99.90;;;;;;4969821;28;20468;-68
2024/01/24 03:01:15;;;;;;;1.13;1.00;;;13.50;99.90;;;;;;4972549;28;20976;-68
2024/01/24 03:03:43;;;;;;;1.93;1.43;;;13.50;99.90;;;;;;4961361;28;20457;-69
2024/01/24 03:06:10;;;;;;;1.50;1.40;;;13.60;99.90;;;;;;4978765;28;20486;-68
2024/01/24 03:08:50;;;;;;;2.70;1.10;;;13.60;99.90;;;;;;4978789;28;20462;-68
2024/01/24 03:11:19;;;;;;;1.13;0.93;;;13.60;99.90;;;;;;4976812;28;20468;-68
2024/01/24 03:13:47;;;;;;;1.00;0.90;;;13.70;99.90;;;;;;4969075;28;20885;-68
2024/01/24 03:16:14;;;;;;;1.00;0.80;;;13.70;99.90;;;;;;4972749;28;21157;-68
2024/01/24 03:18:41;;;;;;;1.97;1.47;;;13.70;99.90;;;;;;4951366;28;20463;-68
2024/01/24 03:21:14;;;;;;;1.27;0.90;;;13.70;99.90;;;;;;4962813;28;20548;-68
2024/01/24 03:23:42;;;;;;;1.00;0.80;;;13.80;99.90;;;;;;4972644;28;20466;-68
2024/01/24 03:26:08;;;;;;;1.20;1.10;;;13.80;99.90;;;;;;4977344;28;20494;-68
2024/01/24 03:28:35;;;;;;;1.03;0.90;;;13.80;99.90;;;;;;4976838;28;20805;-68
2024/01/24 03:31:04;;;;;;;1.30;1.10;;;13.70;99.90;;;;;;4979574;28;20494;-68
2024/01/24 03:33:31;;;;;;;1.00;0.80;;;13.70;99.90;;;;;;4975026;28;20563;-68
2024/01/24 03:35:57;;;;;;;1.73;1.37;;;13.70;99.90;;;;;;4980439;28;20486;-68
2024/01/24 03:38:24;;;;;;;1.47;1.10;;;13.70;99.90;;;;;;4971710;28;20481;-68
2024/01/24 03:40:51;;;;;;;2.40;1.67;;;13.50;99.90;;;;;;4972997;28;20972;-68
2024/01/24 03:43:18;;;;;;;1.83;1.00;;;13.50;99.90;;;;;;4984581;28;20467;-68
2024/01/24 03:45:44;;;;;;;1.50;1.13;;;13.40;99.90;;;;;;4977293;28;20488;-68
2024/01/24 03:48:12;;;;;;;1.10;0.97;;;13.30;99.90;;;;;;4975888;28;20952;-68
2024/01/24 03:50:39;;;;;;;1.80;1.40;;;13.20;99.90;;;;;;4972555;28;20496;-68
2024/01/24 03:53:06;;;;;;;4.93;1.47;;;13.10;99.90;;;;;;4976785;28;20817;-68
2024/01/24 03:55:33;;;;;;;1.30;1.13;;;13.10;99.90;;;;;;4978582;28;20493;-67
2024/01/24 03:58:00;;;;;;;2.13;1.43;;;13.00;99.90;;;;;;4973346;28;21213;-67
2024/01/24 04:00:28;;;;;;;1.40;1.20;;;12.90;99.90;;;;;;4974446;28;20462;-67
2024/01/24 04:02:55;;;;;;;1.30;1.10;;;12.90;99.90;;;;;;4975005;28;20493;-68
2024/01/24 04:05:24;;;;;;;1.47;1.27;;;12.90;99.90;;;;;;4973646;28;22282;-68
2024/01/24 04:07:51;;;;;;;1.23;1.13;;;13.00;99.90;;;;;;4972855;28;20467;-67
2024/01/24 04:10:18;;;;;;;1.30;1.10;;;13.10;99.90;;;;;;4971230;28;20954;-69
2024/01/24 04:12:45;;;;;;;3.17;0.90;;;13.30;99.90;;;;;;4977014;28;20991;-67
2024/01/24 04:15:11;;;;;;;2.10;1.10;;;13.40;99.90;;;;;;4969331;28;20505;-67
2024/01/24 04:17:38;;;;;;;1.97;1.23;;;13.40;99.90;;;;;;4967896;28;21745;-67
2024/01/24 04:20:07;;;;;;;1.00;0.90;;;13.40;99.90;;;;;;4975365;28;20458;-68
2024/01/24 04:22:39;;;;;;;3.40;1.23;;;13.40;99.90;;;;;;4980997;28;21048;-67
2024/01/24 04:25:06;;;;;;;1.30;1.10;;;13.20;99.90;;;;;;4973346;28;20493;-67
2024/01/24 04:27:33;;;;;;;1.47;1.10;;;13.10;99.90;;;;;;4977343;28;20979;-67
2024/01/24 04:30:00;;;;;;;1.07;0.87;;;13.00;99.90;;;;;;4969713;28;20987;-67
2024/01/24 04:32:27;;;;;;;1.10;0.90;;;12.90;99.90;;;;;;4968064;28;20466;-68
2024/01/24 04:34:53;;;;;;;1.30;1.07;;;13.00;99.90;;;;;;4971498;28;20493;-68
2024/01/24 04:37:20;;;;;;;1.10;0.80;;;13.10;99.90;;;;;;4970036;28;20484;-67
2024/01/24 04:39:48;;;;;;;1.10;0.90;;;13.10;99.90;;;;;;4963227;28;20458;-68
2024/01/24 04:42:15;;;;;;;1.10;0.70;;;13.10;99.90;;;;;;4979220;28;20459;-67
2024/01/24 04:44:42;;;;;;;0.90;0.70;;;13.10;99.90;;;;;;4970897;28;20496;-67
2024/01/24 04:47:08;;;;;;;1.20;1.00;;;13.20;99.90;;;;;;4977301;28;20462;-67
2024/01/24 04:49:35;;;;;;;1.00;0.90;;;13.20;99.90;;;;;;4982138;28;20479;-67
2024/01/24 04:52:03;;;;;;;0.90;0.73;;;13.20;99.90;;;;;;4981177;28;20458;-68
2024/01/24 04:54:29;;;;;;;0.90;0.70;;;13.30;99.90;;;;;;4975812;28;21555;-67
2024/01/24 04:56:58;;;;;;;1.70;1.60;;;13.30;99.90;;;;;;4975924;28;20469;-68
2024/01/24 04:59:25;;;;;;;1.87;1.10;;;13.20;99.90;;;;;;4979644;28;20830;-67
2024/01/24 05:01:53;;;;;;;1.77;1.00;;;13.20;99.90;;;;;;4982533;28;20496;-67
2024/01/24 05:04:20;;;;;;;1.60;1.13;;;13.20;99.90;;;;;;4979769;28;20958;-67
2024/01/24 05:06:46;;;;;;;1.00;0.80;;;13.20;99.90;;;;;;4987227;28;20561;-67
2024/01/24 05:09:14;;;;;;;3.43;0.93;;;13.20;99.90;;;;;;4979531;28;20470;-67
2024/01/24 05:11:40;;;;;;;1.83;0.97;;;13.20;99.90;;;;;;4978878;28;20482;-67
2024/01/24 05:14:09;;;;;;;1.23;0.80;;;13.20;99.90;;;;;;4979010;28;20458;-68
2024/01/24 05:16:40;;;;;;;2.40;1.00;;;13.20;99.90;;;;;;4976515;28;20491;-68
2024/01/24 05:19:07;;;;;;;2.90;1.53;;;13.20;99.90;;;;;;4968116;28;20540;-68
2024/01/24 05:22:05;;;;;;;0.90;0.70;;;13.20;99.90;;;;;;4975783;28;20469;-68
2024/01/24 05:24:32;;;;;;;1.97;1.10;;;13.20;99.90;;;;;;4971964;28;20469;-68
2024/01/24 05:26:58;;;;;;;1.77;1.40;;;13.10;99.90;;;;;;4976131;28;20466;-68
2024/01/24 05:29:27;;;;;;;0.97;0.80;;;13.20;99.90;;;;;;4981460;28;20473;-67
2024/01/24 05:31:53;;;;;;;2.80;1.37;;;13.10;99.90;;;;;;4980487;28;20834;-67
2024/01/24 05:34:20;;;;;;;4.50;1.70;;;13.10;99.90;;;;;;4975159;28;20816;-67
2024/01/24 05:36:47;;;;;;;2.43;1.03;;;13.20;99.90;;;;;;4981783;28;21067;-68
2024/01/24 05:39:15;;;;;;;1.07;0.80;;;13.20;99.90;;;;;;4979240;28;20477;-67
2024/01/24 05:41:43;;;;;;;1.00;0.90;;;13.20;99.90;;;;;;4980436;28;20821;-68
2024/01/24 05:44:10;;;;;;;2.07;1.00;;;13.20;99.90;;;;;;4979768;28;20469;-68
2024/01/24 05:46:38;;;;;;;1.43;1.10;;;13.20;99.90;;;;;;4980209;28;20473;-67
2024/01/24 05:49:05;;;;;;;1.30;1.00;;;13.20;99.90;;;;;;4975108;28;20478;-67
2024/01/24 05:51:31;;;;;;;3.73;0.93;;;13.20;99.90;;;;;;4980248;28;20478;-68
2024/01/24 05:53:58;;;;;;;3.70;1.30;;;13.20;99.90;;;;;;4979750;28;20568;-67
2024/01/24 05:56:25;;;;;;;4.50;1.37;;;13.20;99.90;;;;;;4977160;28;20489;-68
2024/01/24 05:58:52;;;;;;;5.03;1.40;;;13.20;99.90;;;;;;4976853;28;20454;-67
2024/01/24 06:01:18;;;;;;;1.37;0.90;;;13.20;99.90;;;;;;4975368;28;20458;-68
2024/01/24 06:03:46;;;;;;;2.27;1.37;;;13.10;99.90;;;;;;4981878;28;20466;-68
2024/01/24 06:06:14;;;;;;;5.17;2.07;;;13.10;99.90;;;;;;4977204;28;20474;-68
2024/01/24 06:08:43;;;;;;;1.53;1.43;;;13.00;99.90;;;;;;4982175;28;20458;-68
2024/01/24 06:11:11;;;;;;;3.07;1.10;;;13.00;99.90;;;;;;4980483;28;20473;-68
2024/01/24 06:13:37;;;;;;;3.23;1.20;;;13.00;99.90;;;;;;4979321;28;20848;-68
2024/01/24 06:16:05;;;;;;;3.63;1.43;;;13.00;99.90;;;;;;4982131;28;20478;-68
2024/01/24 06:18:31;;;;;;;5.63;1.43;;;13.00;99.90;;;;;;4979434;28;21123;-68
2024/01/24 06:21:00;;;;;;;6.33;2.20;;;13.00;99.90;;;;;;4983035;28;20469;-68
2024/01/24 06:23:27;;;;;;;4.43;2.27;;;12.90;99.90;;;;;;4984069;28;20551;-68
2024/01/24 06:25:54;;;;;;;2.87;2.63;;;12.70;99.90;;;;;;4979115;28;20485;-68
2024/01/24 06:28:21;;;;;;;5.90;2.00;;;12.60;99.90;;;;;;4977911;28;21116;-68
2024/01/24 06:30:47;;;;;;;3.13;1.40;;;12.40;99.90;;;;;;4988185;28;20489;-68
2024/01/24 06:35:45;;;;;;;2.00;1.47;;;12.20;99.90;;;;;;4956968;28;20490;-68
2024/01/24 06:38:13;;;;;;;5.20;2.07;;;12.00;99.90;;;;;;4960228;28;20494;-68
2024/01/24 06:40:40;;;;;;;5.63;2.07;;;12.00;99.90;;;;;;4961615;28;21055;-67
2024/01/24 06:43:06;;;;;;;1.70;1.30;;;11.90;99.90;;;;;;4966005;28;20463;-66
2024/01/24 06:45:35;;;;;;;5.57;2.73;;;11.70;99.90;;;;;;4963073;28;20486;-67
2024/01/24 06:48:02;;;;;;;1.53;1.20;;;11.70;99.90;;;;;;4958493;28;21837;-67
2024/01/24 06:50:31;;;;;;;6.30;2.10;;;11.60;99.90;;;;;;4964388;28;20466;-67
2024/01/24 06:52:57;;;;;;;10.40;2.20;;;11.50;99.90;;;;;;4966090;28;20465;-67
2024/01/24 06:55:25;;;;;;;2.67;1.50;;;11.50;99.90;;;;;;4963159;28;20475;-67
2024/01/24 06:57:52;;;;;;;7.17;1.90;;;11.50;99.90;;;;;;4966532;28;20574;-67
2024/01/24 07:00:21;;;;;;;17.13;3.47;;;11.60;99.90;;;;;;4956792;28;20490;-67
2024/01/24 07:02:48;;;;;;;5.93;2.47;;;11.70;99.90;;;;;;4962453;28;20880;-67
2024/01/24 07:05:15;;;;;;;17.73;2.60;;;11.80;99.90;;;;;;4964060;28;20491;-67
2024/01/24 07:07:43;;;;;;;6.50;2.03;;;11.90;99.90;;;;;;4963963;28;20478;-67
2024/01/24 07:10:12;;;;;;;4.00;1.50;;;11.90;99.90;;;;;;4966922;28;20467;-67
2024/01/24 07:12:45;;;;;;;5.67;1.90;;;12.00;99.90;;;;;;4959984;28;20470;-67
2024/01/24 07:15:11;;;;;;;12.53;2.70;;;12.10;99.90;;;;;;4957752;28;20482;-67
2024/01/24 07:17:39;;;;;;;2.80;1.67;;;12.10;99.90;;;;;;4962442;28;20463;-67
2024/01/24 07:20:07;;;;;;;8.90;2.20;;;12.20;99.90;;;;;;4959376;28;20478;-66
2024/01/24 07:22:34;;;;;;;7.60;1.40;;;12.20;99.90;;;;;;4966050;28;20463;-67
2024/01/24 07:25:00;;;;;;;6.93;2.40;;;12.20;99.90;;;;;;4957335;28;20482;-67
2024/01/24 07:27:29;;;;;;;5.67;1.63;;;12.20;99.90;;;;;;4962018;28;21874;-67
2024/01/24 07:29:57;;;;;;;11.53;4.23;;;12.30;99.90;;;;;;4965600;28;20554;-67
2024/01/24 07:32:23;;;;;;;2.10;1.30;;;12.20;99.90;;;;;;4962537;28;20459;-67
2024/01/24 07:34:50;;;;;;;10.00;3.03;;;12.30;99.90;;;;;;4963190;28;20505;-67
2024/01/24 07:37:17;;;;;;;17.23;2.77;;;12.30;99.90;;;;;;4952834;28;20467;-68
2024/01/24 07:39:43;;;;;;;5.97;2.03;;;12.30;99.90;;;;;;4952865;28;20460;-68
2024/01/24 07:42:10;;;;;;;5.33;1.40;;;12.30;99.90;;;;;;4958974;28;20494;-67
2024/01/24 07:44:37;;;;;;;5.23;2.27;;;12.30;99.90;;;;;;4959952;28;20487;-67
2024/01/24 07:47:05;;;;;;;15.03;2.67;;;12.20;99.90;;;;;;4960636;28;20471;-67
2024/01/24 07:49:33;;;;;;;17.63;2.03;;;12.20;99.90;;;;;;4962602;28;20437;-68
2024/01/24 07:52:00;;;;;;;6.13;2.67;;;12.20;99.90;;;;;;4959870;28;20464;-67
2024/01/24 07:54:27;;;;;;;1.90;1.80;;;12.20;99.90;;;;;;4962687;28;20471;-67
2024/01/24 07:56:54;;;;;;;10.90;2.07;;;12.10;99.90;;;;;;4963358;28;20474;-67
2024/01/24 07:59:21;;;;;;;11.53;3.73;;;12.10;99.90;;;;;;4962338;28;20494;-67
2024/01/24 08:01:48;;;;;;;9.60;2.30;;;12.10;99.90;;;;;;4960028;28;20607;-67
2024/01/24 08:04:16;;;;;;;10.73;2.53;;;12.00;99.90;;;;;;4966168;28;20475;-67
2024/01/24 08:06:45;;;;;;;11.03;2.37;;;12.00;99.90;;;;;;4962596;28;20452;-67
2024/01/24 08:09:12;;;;;;;4.13;2.10;;;12.00;99.90;;;;;;4962743;28;20479;-67
2024/01/24 08:11:41;;;;;;;9.60;2.50;;;12.00;99.90;;;;;;4961545;28;20483;-67
2024/01/24 08:14:08;;;;;;;6.10;1.87;;;12.00;99.90;;;;;;4959052;28;20466;-67
2024/01/24 08:16:35;;;;;;;5.60;3.03;;;12.00;99.90;;;;;;4957676;28;21246;-67
2024/01/24 08:19:01;;;;;;;13.23;3.90;;;11.90;99.90;;;;;;4963989;28;20459;-68
2024/01/24 08:21:30;;;;;;;7.93;2.20;;;11.90;99.90;;;;;;4961834;28;20475;-68
2024/01/24 08:23:56;;;;;;;10.07;2.47;;;11.80;99.90;;;;;;4955240;28;20471;-67
2024/01/24 08:26:25;;;;;;;8.37;2.63;;;11.80;99.90;;;;;;4955688;28;20486;-67
2024/01/24 08:28:52;;;;;;;10.80;2.40;;;11.90;99.90;;;;;;4957826;28;20466;-68
2024/01/24 08:31:19;;;;;;;11.97;2.77;;;11.90;99.90;;;;;;4957858;28;20889;-67
2024/01/24 08:33:46;;;;;;;18.93;4.73;;;11.90;99.90;;;;;;4954557;28;20562;-68
2024/01/24 08:36:12;;;;;;;24.87;3.40;;;11.90;99.90;;;;;;4953444;28;20479;-67
2024/01/24 08:38:40;;;;;;;11.17;2.97;;;11.90;99.90;;;;;;4958476;28;20467;-67
2024/01/24 08:41:07;;;;;;;2.03;1.20;;;11.80;99.90;;;;;;4959293;28;20483;-67
2024/01/24 08:43:35;;;;;;;8.50;3.73;;;11.90;99.90;;;;;;4964906;28;20474;-68
2024/01/24 08:46:02;;;;;;;8.27;2.50;;;11.90;99.90;;;;;;4960160;28;20604;-68
2024/01/24 08:48:29;;;;;;;2.87;2.23;;;12.00;99.90;;;;;;4954088;28;20478;-67
2024/01/24 08:50:55;;;;;;;10.97;2.83;;;11.90;99.90;;;;;;4962832;28;20455;-68
2024/01/24 08:53:22;;;;;;;6.90;2.67;;;11.90;99.90;;;;;;4965723;28;20462;-67
2024/01/24 08:55:50;;;;;;;13.63;2.47;;;11.90;99.90;;;;;;4962126;28;20483;-68
2024/01/24 08:58:19;;;;;;;4.23;1.60;;;12.00;99.90;;;;;;4963189;28;20930;-68
2024/01/24 09:00:45;;;;;;;3.67;2.27;;;11.90;99.90;;;;;;4964507;28;20469;-68
2024/01/24 09:03:12;;;;;;;3.83;2.27;;;11.90;99.90;;;;;;4963118;28;20550;-67
2024/01/24 09:05:39;;;;;;;3.73;2.50;;;11.90;99.90;;;;;;4963233;28;20487;-68
2024/01/24 09:08:06;;;;;;;21.03;2.10;;;11.90;99.90;;;;;;4964902;28;20463;-68
2024/01/24 09:10:33;;;;;;;13.17;2.57;;;12.00;99.90;;;;;;4957110;28;20456;-68
2024/01/24 09:13:01;;;;;;;3.20;2.17;;;12.00;99.90;;;;;;4959305;28;20459;-68
2024/01/24 09:15:27;;;;;;;7.87;2.00;;;12.00;99.90;;;;;;4958967;28;20544;-68
2024/01/24 09:17:54;;;;;;;19.83;3.77;;;12.00;99.90;;;;;;4962123;28;20482;-68
2024/01/24 09:20:22;;;;;;;11.37;2.67;;;12.00;99.90;;;;;;4958476;28;20478;-68
2024/01/24 09:22:49;;;;;;;11.20;2.33;;;11.90;99.90;;;;;;4959335;28;20483;-68
2024/01/24 09:25:16;;;;;;;17.87;3.20;;;12.00;99.90;;;;;;4956313;28;20576;-68
2024/01/24 09:27:43;;;;;;;7.67;2.67;;;12.00;99.90;;;;;;4957894;28;20459;-68
2024/01/24 09:30:12;;;;;;;7.33;2.73;;;12.00;99.90;;;;;;4960368;28;20497;-68
2024/01/24 09:32:39;;;;;;;15.13;3.60;;;12.00;99.90;;;;;;4953806;28;20525;-68
2024/01/24 09:35:06;;;;;;;4.47;2.20;;;12.00;99.90;;;;;;4959197;28;20605;-68
2024/01/24 09:37:33;;;;;;;15.63;4.57;;;12.00;99.90;;;;;;4960429;28;20463;-68
2024/01/24 09:40:00;;;;;;;10.43;3.73;;;12.00;99.90;;;;;;4959382;28;20507;-68
2024/01/24 09:42:27;;;;;;;6.33;3.53;;;12.00;99.90;;;;;;4959150;28;20494;-68
2024/01/24 09:44:59;;;;;;;3.30;1.40;;;12.00;99.90;;;;;;4954667;28;20586;-68
2024/01/24 09:47:27;;;;;;;7.60;2.83;;;12.00;99.90;;;;;;4955145;28;20464;-68
2024/01/24 09:49:54;;;;;;;4.10;2.07;;;12.00;99.90;;;;;;4961649;28;20856;-68
2024/01/24 09:52:23;;;;;;;5.37;3.70;;;12.10;99.90;;;;;;4962923;28;20466;-67
2024/01/24 09:54:54;;;;;;;10.63;2.30;;;12.10;99.90;;;;;;4954385;28;20554;-68
2024/01/24 09:57:22;;;;;;;10.00;3.40;;;12.10;99.90;;;;;;4959068;28;20475;-67
2024/01/24 09:59:49;;;;;;;10.73;4.00;;;12.00;99.90;;;;;;4957255;28;20459;-68
2024/01/24 10:02:16;;;;;;;10.00;2.50;;;12.00;99.90;;;;;;4963621;28;20499;-67
2024/01/24 10:04:45;;;;;;;9.90;1.60;;;12.00;99.90;;;;;;4956980;28;20482;-68
2024/01/24 10:07:13;;;;;;;5.90;2.33;;;11.90;99.90;;;;;;4962876;28;20831;-68
2024/01/24 10:09:40;;;;;;;3.50;1.63;;;11.90;99.90;;;;;;4962645;28;21064;-68
2024/01/24 10:12:08;;;;;;;10.23;3.40;;;11.80;99.90;;;;;;4962846;28;20469;-68
2024/01/24 10:14:35;;;;;;;13.83;3.37;;;11.90;99.90;;;;;;4963128;28;20594;-68
2024/01/24 10:17:04;;;;;;;12.67;3.17;;;11.90;99.90;;;;;;4960626;28;20462;-68
2024/01/24 10:19:31;;;;;;;6.83;2.00;;;11.90;99.90;;;;;;4954393;28;20561;-68
2024/01/24 10:21:59;;;;;;;3.07;1.80;;;11.90;99.90;;;;;;4959303;28;20495;-68
2024/01/24 10:24:27;;;;;;;3.70;2.60;;;11.90;99.90;;;;;;4963315;28;20846;-68
2024/01/24 10:26:54;;;;;;;12.80;2.83;;;12.00;99.90;;;;;;4963812;28;20537;-68
2024/01/24 10:29:21;;;;;;;9.20;2.33;;;11.90;99.90;;;;;;4960023;28;20453;-68
2024/01/24 10:31:55;;;;;;;7.63;2.03;;;11.90;99.90;;;;;;4961646;28;21064;-68
2024/01/24 10:34:26;;;;;;;7.87;2.50;;;11.90;99.90;;;;;;4962429;28;20467;-68
2024/01/24 10:36:53;;;;;;;4.93;2.53;;;11.90;99.90;;;;;;4963840;28;20468;-68
2024/01/24 10:39:22;;;;;;;4.03;2.67;;;12.00;99.90;;;;;;4956089;28;20471;-68
2024/01/24 10:41:54;;;;;;;6.27;2.17;;;11.90;99.90;;;;;;4957347;28;21269;-68
2024/01/24 10:44:25;;;;;;;8.73;2.17;;;11.80;99.90;;;;;;4963102;28;20816;-69
2024/01/24 10:46:52;;;;;;;3.73;2.00;;;11.90;99.90;;;;;;4961609;28;20503;-68
2024/01/24 10:49:20;;;;;;;11.73;2.20;;;11.90;99.90;;;;;;4957195;28;20539;-68
2024/01/24 10:51:47;;;;;;;14.53;2.73;;;12.00;99.90;;;;;;4962605;28;20463;-68
2024/01/24 10:54:16;;;;;;;4.97;1.83;;;12.00;99.90;;;;;;4962985;28;20477;-68
2024/01/24 10:56:47;;;;;;;3.80;3.37;;;12.10;99.90;;;;;;4960575;28;20466;-68
2024/01/24 10:59:14;;;;;;;7.73;1.50;;;12.10;99.90;;;;;;4961053;28;20464;-68
2024/01/24 11:01:41;;;;;;;6.90;2.73;;;12.00;99.90;;;;;;4961500;28;20504;-68
2024/01/24 11:04:09;;;;;;;18.37;3.20;;;12.00;99.90;;;;;;4964141;28;20451;-68
2024/01/24 11:06:42;;;;;;;8.47;2.70;;;12.10;99.90;;;;;;4963275;28;20476;-70
2024/01/24 11:09:23;;;;;;;4.07;2.10;;;12.10;99.90;;;;;;4962222;28;20474;-69
2024/01/24 11:11:54;;;;;;;6.77;3.13;;;12.00;99.90;;;;;;4960826;28;20463;-69
2024/01/24 11:14:29;;;;;;;5.67;2.83;;;11.90;99.90;;;;;;4960341;28;20838;-69
2024/01/24 11:16:56;;;;;;;4.30;2.00;;;11.90;99.90;;;;;;4961832;28;21136;-69
2024/01/24 11:19:24;;;;;;;5.97;3.50;;;11.90;99.90;;;;;;4960416;28;20468;-69
2024/01/24 11:21:52;;;;;;;5.60;2.93;;;11.90;99.90;;;;;;4959908;28;20514;-67
2024/01/24 11:24:53;;;;;;;13.30;3.20;;;11.80;99.90;;;;;;4961107;28;20475;-68
2024/01/24 11:27:44;;;;;;;7.03;2.07;;;11.90;99.90;;;;;;4884389;29;20999;-68
2024/01/24 11:30:36;;;;;;;3.40;1.97;;;12.00;99.90;;;;;;4880621;29;21050;-68
2024/01/24 11:33:04;;;;;;;11.33;3.67;;;11.90;99.90;;;;;;4882765;29;21199;-68
2024/01/24 11:35:35;;;;;;;7.73;2.03;;;11.90;99.90;;;;;;4879747;29;20499;-68
2024/01/24 11:38:06;;;;;;;8.17;1.60;;;11.90;99.90;;;;;;4878355;29;20561;-68
2024/01/24 11:40:35;;;;;;;8.60;2.57;;;11.90;99.90;;;;;;4883033;29;20470;-68
2024/01/24 11:43:03;;;;;;;10.00;2.20;;;11.90;99.90;;;;;;4883858;29;21020;-68
2024/01/24 11:45:35;;;;;;;10.80;2.60;;;11.90;99.90;;;;;;4882147;29;20535;-68
2024/01/24 11:48:06;;;;;;;10.00;4.00;;;12.00;99.90;;;;;;4883466;29;20480;-68
2024/01/24 11:50:33;;;;;;;6.80;2.00;;;11.90;99.90;;;;;;4888367;29;20466;-68
2024/01/24 11:53:00;;;;;;;3.90;2.27;;;12.00;99.90;;;;;;4878542;29;20830;-68
2024/01/24 11:55:28;;;;;;;11.33;3.60;;;11.90;99.90;;;;;;4877669;29;20482;-68
2024/01/24 11:57:56;;;;;;;13.23;2.90;;;11.90;99.90;;;;;;4898908;28;20490;-68
2024/01/24 12:00:24;;;;;;;20.10;2.70;;;11.90;99.90;;;;;;4962089;28;20511;-68
2024/01/24 12:02:51;;;;;;;10.63;2.13;;;11.90;99.90;;;;;;4958080;28;20630;-68
2024/01/24 12:05:18;;;;;;;19.57;3.63;;;12.00;99.90;;;;;;4956890;28;20498;-68
2024/01/24 12:07:44;;;;;;;2.73;1.60;;;12.00;99.90;;;;;;4954997;28;21198;-69
2024/01/24 12:10:11;;;;;;;6.53;2.30;;;12.00;99.90;;;;;;4961862;28;20470;-68
2024/01/24 12:12:39;;;;;;;3.80;1.17;;;11.90;99.90;;;;;;4964263;28;20818;-68
2024/01/24 12:15:09;;;;;;;2.60;1.70;;;12.00;99.90;;;;;;4962009;28;20479;-69
2024/01/24 12:17:40;;;;;;;4.23;2.27;;;12.00;99.90;;;;;;4957404;28;20827;-67
2024/01/24 12:20:08;;;;;;;5.93;2.33;;;12.00;99.90;;;;;;4957161;28;20462;-67
2024/01/24 12:22:35;;;;;;;2.20;1.80;;;11.90;99.90;;;;;;4960496;28;20949;-66
2024/01/24 12:25:02;;;;;;;18.07;3.80;;;11.80;99.90;;;;;;4960007;28;20515;-66
2024/01/24 12:27:29;;;;;;;21.77;2.73;;;11.80;99.90;;;;;;4957074;28;20475;-66
2024/01/24 12:29:56;;;;;;;16.73;2.93;;;11.90;99.90;;;;;;4959167;28;20946;-67
2024/01/24 12:32:23;;;;;;;12.93;2.23;;;11.90;99.90;;;;;;4959744;28;20459;-67
2024/01/24 12:34:54;;;;;;;3.93;2.20;;;11.90;99.90;;;;;;4958368;28;20927;-67
2024/01/24 12:37:21;;;;;;;3.40;2.30;;;12.00;99.90;;;;;;4958826;28;20472;-67
2024/01/24 12:39:52;;;;;;;10.73;3.00;;;11.90;99.90;;;;;;4955759;28;21035;-68
2024/01/24 12:42:19;;;;;;;5.33;2.20;;;11.90;99.90;;;;;;4960019;28;20861;-66
2024/01/24 12:44:51;;;;;;;6.90;1.93;;;11.90;99.90;;;;;;4959322;28;20533;-66
2024/01/24 12:47:18;;;;;;;7.93;3.00;;;11.90;99.90;;;;;;4960415;28;20478;-68
2024/01/24 12:49:44;;;;;;;20.07;3.60;;;11.80;99.90;;;;;;4960446;28;20471;-68
2024/01/24 12:52:12;;;;;;;4.13;1.93;;;11.80;99.90;;;;;;4962897;28;20543;-68